Time;durP1;ratioP1;P1;durP2;ratioP2;P2;SDS_P1;SDS_P2;PMS_P1;PMS_P2;Temp;Humidity;BMP_temperature;BMP_pressure;BME280_temperature;BME280_humidity;BME280_pressure;Samples;Min_cycle;Max_cycle;Signal;HPM_P1;HPM_P2
2022/08/03 00:01:25;;;;;;;11.60;10.50;;;;;;;20.59;60.92;100216.16;117019;1187;22930;-58
2022/08/03 00:03:52;;;;;;;11.60;10.50;;;;;;;20.57;60.97;100213.75;117187;1188;22924;-60
2022/08/03 00:06:19;;;;;;;12.90;11.60;;;;;;;20.56;61.11;100213.30;117048;1189;22646;-66
2022/08/03 00:08:46;;;;;;;13.00;10.70;;;;;;;20.54;60.98;100217.83;117078;1186;22944;-67
2022/08/03 00:11:13;;;;;;;16.70;10.80;;;;;;;20.52;61.08;100218.67;117101;1185;24169;-67
2022/08/03 00:13:40;;;;;;;12.40;11.20;;;;;;;20.51;61.26;100216.09;117011;1188;24275;-59
2022/08/03 00:16:07;;;;;;;12.90;11.60;;;;;;;20.49;61.16;100212.27;117082;1188;22932;-67
2022/08/03 00:18:34;;;;;;;12.50;10.50;;;;;;;20.47;61.26;100207.73;117131;1189;23576;-59
2022/08/03 00:21:02;;;;;;;12.40;11.20;;;;;;;20.45;61.29;100205.86;117041;1189;24172;-67
2022/08/03 00:23:29;;;;;;;12.40;11.20;;;;;;;20.41;61.36;100206.65;117128;1186;23006;-67
2022/08/03 00:26:16;;;;;;;13.10;11.80;;;;;;;20.37;61.37;100206.29;116910;1188;22814;-59
2022/08/03 00:28:43;;;;;;;12.70;11.50;;;;;;;20.36;61.43;100200.50;117106;1185;22931;-67
2022/08/03 00:31:10;;;;;;;11.70;10.60;;;;;;;20.35;61.51;100193.42;117085;1188;23509;-60
2022/08/03 00:33:39;;;;;;;13.30;12.10;;;;;;;20.33;61.89;100193.14;117188;1188;22915;-59
2022/08/03 00:36:26;;;;;;;13.70;12.40;;;;;;;20.30;61.76;100186.61;117101;1187;23630;-60
2022/08/03 00:38:54;;;;;;;15.30;12.30;;;;;;;20.31;61.83;100188.86;117110;1188;23442;-59
2022/08/03 00:41:21;;;;;;;13.30;12.00;;;;;;;20.30;61.77;100189.81;117122;1183;23449;-67
2022/08/03 00:43:48;;;;;;;14.00;12.60;;;;;;;20.30;62.02;100188.04;117128;1188;21855;-67
2022/08/03 00:46:15;;;;;;;13.70;12.30;;;;;;;20.30;62.08;100188.34;117181;1188;24145;-67
2022/08/03 00:48:50;;;;;;;15.30;13.80;;;;;;;20.30;62.24;100189.27;117176;1188;22085;-67
2022/08/03 00:51:18;;;;;;;13.90;12.60;;;;;;;20.30;62.39;100190.14;117001;1189;21876;-67
2022/08/03 00:53:45;;;;;;;14.80;13.40;;;;;;;20.32;62.45;100192.00;117139;1186;23452;-59
2022/08/03 00:56:15;;;;;;;16.10;14.30;;;;;;;20.33;62.49;100189.63;117100;1186;22925;-66
2022/08/03 00:58:44;;;;;;;15.20;13.70;;;;;;;20.33;62.61;100189.27;117140;1188;21865;-67
2022/08/03 01:01:11;;;;;;;13.90;12.60;;;;;;;20.32;62.67;100191.81;117008;1186;23611;-67
2022/08/03 01:03:38;;;;;;;13.90;12.50;;;;;;;20.30;62.88;100189.80;117104;1187;22925;-66
2022/08/03 01:06:17;;;;;;;14.20;12.80;;;;;;;20.29;62.72;100190.05;117054;1188;22925;-58
2022/08/03 01:08:50;;;;;;;13.20;12.00;;;;;;;20.29;62.83;100187.52;117127;1188;21861;-59
2022/08/03 01:11:31;;;;;;;14.20;12.70;;;;;;;20.28;62.81;100183.68;117144;1188;21960;-66
2022/08/03 01:14:19;;;;;;;14.10;12.70;;;;;;;20.24;63.01;100186.90;117123;1182;24161;-67
2022/08/03 01:16:52;;;;;;;14.40;12.80;;;;;;;20.21;63.09;100187.04;117149;1188;21856;-66
2022/08/03 01:19:39;;;;;;;13.70;12.30;;;;;;;20.20;63.06;100188.20;117035;1188;24250;-59
2022/08/03 01:22:25;;;;;;;12.60;11.00;;;;;;;20.18;63.08;100185.27;117019;1181;22963;-59
2022/08/03 01:25:09;;;;;;;14.80;12.50;;;;;;;20.16;63.05;100184.14;117099;1189;22926;-59
2022/08/03 01:27:45;;;;;;;13.20;11.90;;;;;;;20.15;63.38;100189.90;117046;1188;21855;-67
2022/08/03 01:30:12;;;;;;;13.10;11.80;;;;;;;20.13;63.13;100183.41;116995;1189;22966;-67
2022/08/03 01:32:57;;;;;;;13.90;12.60;;;;;;;20.14;63.24;100179.08;117043;1187;21857;-59
2022/08/03 01:35:32;;;;;;;13.70;11.20;;;;;;;20.19;63.24;100178.12;117031;1188;23027;-67
2022/08/03 01:38:08;;;;;;;12.60;11.40;;;;;;;20.23;63.42;100176.98;117097;1189;21845;-66
2022/08/03 01:40:35;;;;;;;12.80;11.60;;;;;;;20.27;63.44;100170.72;117170;1182;21844;-59
2022/08/03 01:43:02;;;;;;;12.40;11.30;;;;;;;20.31;63.31;100168.89;117145;1189;23564;-67
2022/08/03 01:45:29;;;;;;;11.60;10.50;;;;;;;20.34;63.21;100169.22;117050;1186;23026;-67
2022/08/03 01:48:00;;;;;;;13.30;11.50;;;;;;;20.36;63.18;100163.27;117062;1188;22157;-66
2022/08/03 01:50:28;;;;;;;15.50;11.30;;;;;;;20.38;63.33;100154.42;117058;1188;24169;-59
2022/08/03 01:52:55;;;;;;;13.10;11.30;;;;;;;20.40;63.26;100155.01;117016;1188;21870;-67
2022/08/03 01:55:22;;;;;;;13.40;10.60;;;;;;;20.43;63.16;100156.30;117189;1183;22954;-67
2022/08/03 01:57:49;;;;;;;12.50;11.20;;;;;;;20.44;63.34;100156.96;117076;1188;23650;-67
2022/08/03 02:00:36;;;;;;;11.10;10.10;;;;;;;20.45;63.53;100158.81;117047;1188;21850;-59
2022/08/03 02:03:06;;;;;;;11.30;10.20;;;;;;;20.47;63.46;100160.34;117098;1184;22946;-65
2022/08/03 02:05:33;;;;;;;13.30;10.20;;;;;;;20.53;63.34;100159.46;117039;1186;21905;-67
2022/08/03 02:08:01;;;;;;;11.30;10.20;;;;;;;20.57;63.18;100157.25;117017;1191;21857;-58
2022/08/03 02:10:28;;;;;;;10.80;9.70;;;;;;;20.60;63.28;100157.46;117263;1189;23688;-59
2022/08/03 02:13:02;;;;;;;10.00;9.00;;;;;;;20.61;63.15;100155.61;117023;1186;22843;-59
2022/08/03 02:15:29;;;;;;;10.20;9.20;;;;;;;20.61;63.24;100157.17;117185;1186;22223;-67
2022/08/03 02:17:56;;;;;;;10.60;8.90;;;;;;;20.61;63.39;100153.64;117072;1188;23553;-67
2022/08/03 02:20:23;;;;;;;10.60;8.80;;;;;;;20.56;63.47;100158.20;117137;1186;21847;-58
2022/08/03 02:22:50;;;;;;;10.10;8.80;;;;;;;20.54;63.63;100155.66;117124;1189;24174;-67
2022/08/03 02:25:17;;;;;;;12.10;10.40;;;;;;;20.54;63.54;100152.09;117002;1186;23827;-59
2022/08/03 02:27:53;;;;;;;9.70;8.70;;;;;;;20.54;63.58;100153.00;117181;1186;22950;-67
2022/08/03 02:30:20;;;;;;;9.70;8.70;;;;;;;20.60;63.42;100151.04;117094;1188;23465;-59
2022/08/03 02:32:53;;;;;;;9.90;8.90;;;;;;;20.73;62.95;100150.80;116913;1188;22929;-67
2022/08/03 02:35:20;;;;;;;9.80;8.90;;;;;;;20.78;62.82;100150.52;117134;1189;21911;-58
2022/08/03 02:37:50;;;;;;;9.00;8.10;;;;;;;20.71;63.13;100149.33;117286;1183;21877;-59
2022/08/03 02:40:18;;;;;;;9.00;8.10;;;;;;;20.57;63.46;100149.95;117143;1184;22926;-67
2022/08/03 02:42:45;;;;;;;13.40;8.90;;;;;;;20.55;63.55;100152.38;117198;1187;22285;-59
2022/08/03 02:45:12;;;;;;;9.40;8.30;;;;;;;20.55;63.58;100152.73;116964;1188;22616;-59
2022/08/03 02:47:40;;;;;;;9.70;8.70;;;;;;;20.56;63.52;100157.69;117156;1188;23978;-66
2022/08/03 02:50:20;;;;;;;;;;;;;;;20.56;63.44;100153.91;117098;1188;21851;-67
2022/08/03 02:52:48;;;;;;;9.30;8.30;;;;;;;20.57;63.56;100152.10;117209;1181;22954;-67
2022/08/03 02:55:14;;;;;;;10.00;9.00;;;;;;;20.57;63.67;100150.12;117001;1188;23553;-67
2022/08/03 02:57:41;;;;;;;17.00;9.70;;;;;;;20.57;63.59;100150.30;117017;1188;22643;-66
2022/08/03 03:00:09;;;;;;;9.90;8.70;;;;;;;20.57;63.70;100152.61;116995;1186;24159;-58
2022/08/03 03:02:36;;;;;;;10.60;9.10;;;;;;;20.59;63.57;100153.39;116985;1188;24776;-67
2022/08/03 03:05:03;;;;;;;11.40;9.80;;;;;;;20.61;63.52;100155.08;116937;1189;22906;-59
2022/08/03 03:07:50;;;;;;;11.60;10.30;;;;;;;20.63;63.54;100156.75;117160;1187;22076;-58
2022/08/03 03:10:21;;;;;;;11.00;9.80;;;;;;;20.67;63.52;100158.64;116903;1188;22321;-59
2022/08/03 03:12:58;;;;;;;13.00;9.50;;;;;;;20.70;63.52;100162.42;117023;1187;23034;-59
2022/08/03 03:15:25;;;;;;;11.70;10.00;;;;;;;20.72;63.49;100159.77;117046;1188;22799;-68
2022/08/03 03:17:52;;;;;;;13.20;8.90;;;;;;;20.75;63.55;100158.54;117193;1187;22988;-68
2022/08/03 03:20:22;;;;;;;8.80;7.90;;;;;;;20.79;63.60;100163.16;117103;1188;23556;-58
2022/08/03 03:22:57;;;;;;;8.80;7.70;;;;;;;20.84;63.62;100158.45;117063;1188;21973;-67
2022/08/03 03:25:24;;;;;;;8.70;7.50;;;;;;;20.87;63.59;100158.56;116976;1186;24203;-59
2022/08/03 03:27:51;;;;;;;9.70;7.60;;;;;;;20.95;63.51;100158.67;117064;1188;24162;-68
2022/08/03 03:30:18;;;;;;;7.40;6.60;;;;;;;21.00;63.48;100159.64;116958;1189;22647;-67
2022/08/03 03:32:45;;;;;;;8.90;8.00;;;;;;;21.05;63.24;100160.00;117115;1188;22100;-59
2022/08/03 03:35:13;;;;;;;7.70;6.90;;;;;;;21.07;63.23;100162.05;116940;1188;24713;-67
2022/08/03 03:37:39;;;;;;;11.50;9.60;;;;;;;21.10;63.37;100161.16;117011;1188;22817;-67
2022/08/03 03:40:07;;;;;;;9.70;8.30;;;;;;;21.14;63.45;100165.02;117089;1186;23458;-60
2022/08/03 03:42:35;;;;;;;10.40;7.80;;;;;;;21.18;63.30;100165.73;117230;1186;22162;-67
2022/08/03 03:45:05;;;;;;;8.40;7.60;;;;;;;21.20;63.30;100165.02;117022;1186;22953;-67
2022/08/03 03:47:34;;;;;;;12.70;7.70;;;;;;;21.24;63.22;100165.33;117151;1187;22944;-65
2022/08/03 03:50:02;;;;;;;11.10;7.00;;;;;;;21.29;63.36;100168.80;117163;1189;21845;-59
2022/08/03 03:52:30;;;;;;;7.50;6.60;;;;;;;21.33;63.36;100172.83;117116;1188;22914;-67
2022/08/03 03:54:57;;;;;;;6.80;6.20;;;;;;;21.41;63.42;100172.85;117121;1186;24168;-59
2022/08/03 03:57:27;;;;;;;6.60;5.80;;;;;;;21.51;62.99;100172.80;117095;1188;23025;-59
2022/08/03 03:59:54;;;;;;;6.90;6.20;;;;;;;21.61;63.01;100170.09;117176;1189;23596;-66
2022/08/03 04:02:20;;;;;;;5.40;4.90;;;;;;;21.62;62.97;100166.98;117139;1186;23481;-59
2022/08/03 04:13:14;;;;;;;7.10;5.90;;;;;;;21.76;63.13;100172.89;117058;1184;23576;-67
2022/08/03 04:15:41;;;;;;;8.00;6.80;;;;;;;21.85;62.95;100174.67;117067;1186;23579;-59
2022/08/03 04:18:09;;;;;;;6.90;6.20;;;;;;;21.93;62.67;100179.85;117129;1188;23646;-67
2022/08/03 04:20:37;;;;;;;8.00;7.30;;;;;;;22.00;62.56;100176.23;117030;1186;21854;-67
2022/08/03 04:23:04;;;;;;;10.50;7.70;;;;;;;22.06;62.59;100174.23;116894;1186;23618;-67
2022/08/03 04:25:41;;;;;;;9.50;6.00;;;;;;;22.13;62.44;100171.50;116797;1188;21863;-60
2022/08/03 04:28:10;;;;;;;9.20;6.30;;;;;;;22.19;62.43;100175.05;117018;1186;24212;-67
2022/08/03 04:30:59;;;;;;;11.70;8.90;;;;;;;22.26;62.45;100171.55;117038;1188;23085;-60
2022/08/03 04:33:26;;;;;;;7.00;5.80;;;;;;;22.33;62.29;100170.54;117736;1182;22966;-60
2022/08/03 04:35:57;;;;;;;7.70;5.80;;;;;;;22.40;62.29;100169.93;117805;1187;22942;-68
2022/08/03 04:38:33;;;;;;;7.00;5.60;;;;;;;22.48;62.41;100175.73;117167;1188;21867;-68
2022/08/03 04:41:00;;;;;;;5.60;4.70;;;;;;;22.53;62.14;100176.61;117048;1188;23459;-59
2022/08/03 04:43:27;;;;;;;5.40;4.70;;;;;;;22.60;61.96;100177.45;116983;1187;23579;-68
2022/08/03 04:45:54;;;;;;;6.50;5.10;;;;;;;22.62;62.16;100175.86;116853;1186;21975;-68
2022/08/03 04:48:22;;;;;;;6.10;4.40;;;;;;;22.65;62.26;100178.69;117011;1186;24162;-59
2022/08/03 04:50:48;;;;;;;7.60;4.50;;;;;;;22.73;62.19;100182.13;116988;1188;24172;-67
2022/08/03 04:53:16;;;;;;;7.00;4.30;;;;;;;22.82;62.36;100183.30;117025;1189;21865;-68
2022/08/03 04:55:45;;;;;;;5.60;4.20;;;;;;;22.92;62.20;100188.54;117046;1186;21925;-68
2022/08/03 04:58:12;;;;;;;5.30;4.30;;;;;;;23.02;62.05;100188.26;117038;1186;23404;-60
2022/08/03 05:00:39;;;;;;;5.20;4.70;;;;;;;23.09;61.93;100189.41;117289;1187;22704;-60
2022/08/03 05:03:06;;;;;;;5.20;4.20;;;;;;;23.14;61.69;100189.55;117127;1186;24827;-60
2022/08/03 05:05:53;;;;;;;5.00;4.50;;;;;;;23.21;61.66;100184.83;117112;1189;21860;-68
2022/08/03 05:08:36;;;;;;;6.90;5.00;;;;;;;23.28;61.47;100187.80;117030;1188;22998;-59
2022/08/03 05:11:16;;;;;;;4.90;4.40;;;;;;;23.34;61.36;100187.73;117063;1188;21851;-60
2022/08/03 05:13:46;;;;;;;;;;;;;;;23.39;61.34;100184.51;117082;1183;21816;-68
2022/08/03 05:16:13;;;;;;;6.00;4.60;;;;;;;23.43;61.22;100181.73;117116;1188;24149;-68
2022/08/03 05:18:43;;;;;;;6.60;4.60;;;;;;;23.48;61.08;100182.85;117120;1188;22069;-68
2022/08/03 05:21:15;;;;;;;6.70;4.80;;;;;;;23.45;61.35;100181.02;117165;1186;23450;-60
2022/08/03 05:23:43;;;;;;;5.90;4.60;;;;;;;23.53;61.68;100174.21;117193;1188;21864;-60
2022/08/03 05:26:13;;;;;;;7.00;5.10;;;;;;;23.71;61.64;100172.99;117209;1189;22085;-60
2022/08/03 05:28:40;;;;;;;7.60;4.90;;;;;;;23.89;61.61;100175.10;117094;1189;23453;-59
2022/08/03 05:31:18;;;;;;;7.20;5.40;;;;;;;24.06;61.07;100182.33;116940;1189;21887;-59
2022/08/03 05:33:47;;;;;;;8.80;4.70;;;;;;;24.21;60.97;100180.92;117195;1186;23580;-59
2022/08/03 05:36:14;;;;;;;5.40;4.90;;;;;;;24.37;60.59;100183.94;117042;1189;22917;-68
2022/08/03 05:38:41;;;;;;;7.00;4.40;;;;;;;24.52;60.58;100182.25;117227;1186;23015;-59
2022/08/03 05:41:08;;;;;;;5.60;4.50;;;;;;;24.69;60.01;100185.14;117147;1185;23573;-68
2022/08/03 05:43:52;;;;;;;6.90;4.90;;;;;;;24.88;59.67;100182.67;117153;1188;21858;-68
2022/08/03 05:46:20;;;;;;;;;;;;;;;25.02;59.79;100185.20;117267;1189;21838;-68
2022/08/03 05:48:47;;;;;;;6.90;4.20;;;;;;;25.16;59.44;100183.96;117182;1187;23553;-68
2022/08/03 05:51:14;;;;;;;6.50;4.40;;;;;;;25.36;59.33;100187.14;117020;1189;22945;-60
2022/08/03 05:53:41;;;;;;;5.10;4.50;;;;;;;25.51;59.06;100190.98;117039;1186;22831;-59
2022/08/03 05:56:09;;;;;;;5.70;3.70;;;;;;;25.69;57.90;100196.96;117182;1189;24158;-68
2022/08/03 05:58:47;;;;;;;8.30;4.40;;;;;;;25.79;57.78;100192.54;117157;1187;21857;-60
2022/08/03 06:01:15;;;;;;;6.90;4.50;;;;;;;25.86;58.10;100195.61;117266;1186;22652;-69
2022/08/03 06:03:43;;;;;;;6.40;4.20;;;;;;;25.90;57.93;100197.46;117176;1186;23042;-69
2022/08/03 06:06:10;;;;;;;10.60;4.50;;;;;;;25.96;57.98;100202.02;117190;1188;21860;-68
2022/08/03 06:08:38;;;;;;;6.60;4.90;;;;;;;25.98;57.49;100201.53;117005;1187;24181;-69
2022/08/03 06:11:05;;;;;;;5.40;4.90;;;;;;;25.99;57.21;100201.77;117239;1188;21895;-60
2022/08/03 06:13:32;;;;;;;5.80;5.00;;;;;;;25.93;57.03;100205.86;117161;1186;24307;-68
2022/08/03 06:15:59;;;;;;;6.60;4.60;;;;;;;25.80;57.33;100209.75;117116;1189;22811;-60
2022/08/03 06:18:26;;;;;;;7.60;5.60;;;;;;;25.71;57.31;100213.92;117045;1188;22928;-68
2022/08/03 06:20:54;;;;;;;6.20;5.60;;;;;;;25.66;57.59;100216.59;117250;1185;24297;-68
2022/08/03 06:23:21;;;;;;;7.20;6.50;;;;;;;25.62;57.72;100217.25;117131;1188;23554;-68
2022/08/03 06:26:08;;;;;;;9.00;6.30;;;;;;;25.60;57.82;100217.76;117002;1185;21844;-68
2022/08/03 06:28:36;;;;;;;7.50;5.90;;;;;;;25.63;57.78;100222.40;116995;1189;22918;-60
2022/08/03 06:31:22;;;;;;;6.80;5.80;;;;;;;25.64;57.39;100223.95;117076;1186;21862;-59
2022/08/03 06:33:49;;;;;;;;;;;;;;;25.60;57.42;100229.27;117208;1187;22101;-59
2022/08/03 06:36:37;;;;;;;6.90;5.60;;;;;;;25.59;57.70;100227.05;117161;1186;21952;-60
2022/08/03 06:39:05;;;;;;;6.70;5.40;;;;;;;25.58;57.40;100226.80;117137;1186;23550;-59
2022/08/03 06:41:34;;;;;;;6.90;5.40;;;;;;;25.55;57.64;100227.20;117073;1186;24173;-68
2022/08/03 06:44:04;;;;;;;7.20;5.80;;;;;;;25.59;58.04;100226.67;117156;1188;22740;-60
2022/08/03 06:46:31;;;;;;;9.70;5.90;;;;;;;25.65;57.58;100227.27;117087;1188;23558;-60
2022/08/03 06:48:58;;;;;;;6.40;5.60;;;;;;;25.73;57.47;100224.00;117204;1186;22922;-60
2022/08/03 06:51:26;;;;;;;6.00;5.20;;;;;;;25.73;57.40;100225.73;117092;1186;21885;-59
2022/08/03 06:54:16;;;;;;;9.00;6.10;;;;;;;25.72;56.95;100226.02;117097;1186;22193;-59
2022/08/03 06:56:43;;;;;;;7.20;6.10;;;;;;;25.75;57.35;100225.98;117160;1188;21940;-59
2022/08/03 06:59:10;;;;;;;6.90;6.10;;;;;;;25.83;57.42;100226.21;117139;1187;23474;-68
2022/08/03 07:01:57;;;;;;;8.00;6.20;;;;;;;25.91;57.29;100223.63;117128;1187;22330;-67
2022/08/03 07:04:24;;;;;;;8.10;6.20;;;;;;;25.93;56.71;100222.59;117132;1185;23551;-67
2022/08/03 07:06:51;;;;;;;6.50;5.90;;;;;;;25.98;56.88;100222.56;117071;1189;23094;-68
2022/08/03 07:09:18;;;;;;;6.70;5.90;;;;;;;26.01;56.70;100218.69;117072;1188;21862;-59
2022/08/03 07:11:45;;;;;;;6.30;5.70;;;;;;;26.02;56.82;100222.96;117026;1186;23563;-68
2022/08/03 07:14:12;;;;;;;8.40;5.90;;;;;;;26.04;56.63;100220.84;117015;1189;23563;-67
2022/08/03 07:16:40;;;;;;;6.60;5.80;;;;;;;26.07;56.54;100221.85;117132;1189;23128;-59
2022/08/03 07:19:07;;;;;;;8.80;5.80;;;;;;;26.10;56.85;100222.14;117053;1186;23654;-68
2022/08/03 07:21:34;;;;;;;11.10;6.30;;;;;;;26.13;56.93;100222.08;117104;1186;21845;-67
2022/08/03 07:24:01;;;;;;;7.30;5.60;;;;;;;26.22;56.88;100221.39;117276;1189;22628;-68
2022/08/03 07:26:28;;;;;;;8.10;6.10;;;;;;;26.50;56.45;100219.09;117089;1185;21864;-59
2022/08/03 07:28:55;;;;;;;6.20;5.60;;;;;;;26.66;55.84;100219.11;117032;1186;24223;-67
2022/08/03 07:31:22;;;;;;;7.10;6.20;;;;;;;26.62;55.34;100222.52;117165;1187;23363;-60
2022/08/03 07:33:49;;;;;;;7.90;6.00;;;;;;;26.60;55.53;100221.76;117122;1186;23451;-59
2022/08/03 07:36:16;;;;;;;6.60;5.90;;;;;;;26.65;56.20;100221.84;117191;1186;23554;-67
2022/08/03 07:38:43;;;;;;;6.80;6.10;;;;;;;26.73;55.62;100226.25;117197;1187;22918;-68
2022/08/03 07:41:10;;;;;;;6.70;5.90;;;;;;;26.82;55.80;100229.52;117119;1184;22731;-66
2022/08/03 07:43:37;;;;;;;8.80;5.70;;;;;;;26.84;55.10;100229.00;117121;1186;22189;-59
2022/08/03 07:46:04;;;;;;;8.90;5.40;;;;;;;26.86;54.83;100228.96;119230;1186;21784;-67
2022/08/03 07:48:31;;;;;;;9.00;5.90;;;;;;;26.95;55.53;100225.56;119272;1187;21830;-68
2022/08/03 07:50:58;;;;;;;6.70;5.40;;;;;;;27.14;55.37;100225.75;119267;1186;22241;-67
2022/08/03 07:53:24;;;;;;;6.80;5.70;;;;;;;27.41;55.51;100223.45;119239;1187;21819;-59
2022/08/03 07:55:51;;;;;;;5.90;5.40;;;;;;;27.66;54.12;100223.14;119207;1186;21833;-68
2022/08/03 07:58:18;;;;;;;6.30;5.60;;;;;;;27.73;54.11;100221.66;119072;1186;21893;-60
2022/08/03 08:00:51;;;;;;;6.00;5.40;;;;;;;27.63;54.04;100226.69;117186;1189;21864;-64
2022/08/03 08:03:20;;;;;;;6.20;5.20;;;;;;;27.55;54.35;100229.84;117166;1186;23475;-68
2022/08/03 08:05:48;;;;;;;5.90;5.30;;;;;;;27.55;54.06;100231.15;117001;1187;23576;-67
2022/08/03 08:08:15;;;;;;;8.30;5.40;;;;;;;27.55;53.78;100231.67;117116;1186;21863;-68
2022/08/03 08:10:42;;;;;;;5.90;5.20;;;;;;;27.59;54.19;100233.12;116992;1186;23595;-59
2022/08/03 08:13:24;;;;;;;6.60;5.20;;;;;;;27.67;54.22;100231.19;116939;1188;23478;-60
2022/08/03 08:15:51;;;;;;;6.50;5.00;;;;;;;27.76;53.43;100231.15;117184;1189;23458;-59
2022/08/03 08:18:18;;;;;;;5.80;4.80;;;;;;;27.85;53.85;100231.23;116983;1189;23596;-67
2022/08/03 08:20:45;;;;;;;6.10;5.10;;;;;;;27.93;53.76;100229.47;117013;1188;21863;-59
2022/08/03 08:23:12;;;;;;;5.60;4.60;;;;;;;28.10;53.15;100225.26;116924;1183;22622;-67
2022/08/03 08:25:59;;;;;;;5.30;4.80;;;;;;;28.18;53.62;100228.36;117141;1186;23043;-67
2022/08/03 08:28:26;;;;;;;5.80;4.50;;;;;;;28.40;52.99;100230.19;117165;1186;23566;-67
2022/08/03 08:30:59;;;;;;;6.40;4.90;;;;;;;28.49;52.47;100234.30;117169;1188;23906;-59
2022/08/03 08:33:26;;;;;;;5.00;4.00;;;;;;;28.28;53.17;100229.35;117238;1189;21871;-59
2022/08/03 08:36:13;;;;;;;8.20;4.40;;;;;;;28.14;52.70;100233.60;117182;1186;21960;-68
2022/08/03 08:38:43;;;;;;;7.60;4.50;;;;;;;28.12;53.60;100232.34;117002;1189;21854;-67
2022/08/03 08:41:11;;;;;;;5.10;3.90;;;;;;;28.23;53.54;100232.07;117078;1187;21851;-59
2022/08/03 08:43:38;;;;;;;4.80;4.20;;;;;;;28.50;52.67;100234.04;117104;1187;21863;-59
2022/08/03 08:46:07;;;;;;;4.50;3.60;;;;;;;28.88;52.05;100234.91;117130;1187;21857;-67
2022/08/03 08:48:35;;;;;;;4.70;4.20;;;;;;;28.86;51.60;100237.33;117168;1185;23471;-67
2022/08/03 08:51:01;;;;;;;4.30;3.60;;;;;;;28.83;52.43;100239.37;116989;1191;21855;-59
2022/08/03 08:53:31;;;;;;;4.60;3.80;;;;;;;28.77;52.27;100239.21;117084;1188;22333;-59
2022/08/03 08:55:59;;;;;;;5.60;4.40;;;;;;;28.72;51.70;100239.79;117164;1188;22924;-67
2022/08/03 08:58:35;;;;;;;3.80;3.30;;;;;;;28.72;51.21;100243.26;117174;1188;21853;-67
2022/08/03 09:01:02;;;;;;;4.40;3.50;;;;;;;28.87;51.84;100244.98;117113;1181;21891;-59
2022/08/03 09:03:33;;;;;;;3.40;2.90;;;;;;;28.91;51.58;100237.90;117043;1188;21894;-68
2022/08/03 09:06:00;;;;;;;3.30;3.00;;;;;;;28.96;50.73;100237.11;116938;1189;21906;-66
2022/08/03 09:08:29;;;;;;;4.10;2.90;;;;;;;29.03;50.47;100237.69;117202;1188;21850;-68
2022/08/03 09:10:56;;;;;;;4.10;3.50;;;;;;;29.19;50.67;100241.52;117142;1187;22931;-66
2022/08/03 09:13:23;;;;;;;4.70;3.60;;;;;;;29.37;50.42;100243.42;116894;1189;23558;-67
2022/08/03 09:16:13;;;;;;;5.10;4.10;;;;;;;29.64;50.55;100241.46;117234;1186;21862;-68
2022/08/03 09:19:01;;;;;;;4.30;3.60;;;;;;;29.72;50.24;100234.93;117082;1189;24314;-68
2022/08/03 09:21:28;;;;;;;5.30;3.60;;;;;;;29.66;50.38;100238.77;117032;1186;22986;-67
2022/08/03 09:23:59;;;;;;;5.60;2.80;;;;;;;29.61;49.46;100235.05;117184;1188;21964;-67
2022/08/03 09:26:30;;;;;;;3.60;2.40;;;;;;;29.65;49.14;100235.59;117169;1188;22654;-68
2022/08/03 09:29:04;;;;;;;4.80;3.00;;;;;;;30.00;50.18;100228.98;117016;1186;22809;-60
2022/08/03 09:31:43;;;;;;;5.10;3.10;;;;;;;30.15;49.27;100221.61;117101;1188;21905;-67
2022/08/03 09:34:13;;;;;;;4.20;3.10;;;;;;;30.20;48.24;100220.25;116989;1188;23725;-60
2022/08/03 09:36:47;;;;;;;4.00;3.50;;;;;;;30.22;47.55;100221.27;117181;1189;21885;-59
2022/08/03 09:39:16;;;;;;;5.00;3.70;;;;;;;30.15;46.94;100224.10;116989;1186;23663;-66
2022/08/03 09:41:47;;;;;;;4.70;4.00;;;;;;;30.28;48.27;100221.80;117134;1189;23484;-59
2022/08/03 09:44:14;;;;;;;6.30;3.80;;;;;;;30.65;47.71;100217.99;117327;1186;22935;-66
2022/08/03 09:46:55;;;;;;;6.60;3.60;;;;;;;30.86;47.78;100219.52;116983;1186;21989;-65
2022/08/03 09:49:22;;;;;;;4.30;3.50;;;;;;;31.25;47.54;100219.66;117160;1185;21844;-66
2022/08/03 09:51:49;;;;;;;5.10;3.80;;;;;;;31.68;47.70;100218.10;117190;1189;22906;-66
2022/08/03 09:54:36;;;;;;;13.10;3.70;;;;;;;32.07;46.78;100223.08;117116;1187;23736;-59
2022/08/03 09:57:03;;;;;;;3.30;2.90;;;;;;;32.26;46.83;100223.41;117116;1186;22079;-66
2022/08/03 09:59:31;;;;;;;3.00;2.60;;;;;;;31.95;45.91;100226.87;117076;1187;21845;-59
2022/08/03 10:01:59;;;;;;;3.40;2.60;;;;;;;31.70;44.82;100227.27;117182;1188;22945;-65
2022/08/03 10:04:26;;;;;;;4.60;2.60;;;;;;;31.46;44.90;100235.63;117023;1185;23576;-59
2022/08/03 10:07:08;;;;;;;4.80;2.50;;;;;;;31.21;45.52;100238.30;117105;1186;22908;-66
2022/08/03 10:09:35;;;;;;;4.00;2.50;;;;;;;31.17;46.57;100236.70;117043;1186;23005;-66
2022/08/03 10:12:07;;;;;;;3.90;2.90;;;;;;;31.23;46.69;100235.14;117160;1187;22571;-65
2022/08/03 10:14:36;;;;;;;2.90;2.40;;;;;;;31.10;46.01;100238.14;117114;1188;22902;-66
2022/08/03 10:17:03;;;;;;;3.40;2.60;;;;;;;30.91;46.31;100243.67;117173;1188;21865;-59
2022/08/03 10:19:30;;;;;;;3.70;2.80;;;;;;;30.99;47.78;100242.16;117280;1185;23557;-66
2022/08/03 10:22:01;;;;;;;2.50;2.30;;;;;;;30.99;47.78;100241.35;117277;1182;23576;-66
2022/08/03 10:24:29;;;;;;;2.90;2.40;;;;;;;31.00;47.78;100241.08;117130;1187;21874;-66
2022/08/03 10:27:03;;;;;;;3.40;2.50;;;;;;;30.96;47.68;100242.06;117189;1183;21864;-67
2022/08/03 10:29:36;;;;;;;3.20;2.50;;;;;;;31.09;46.34;100236.81;117177;1186;21854;-68
2022/08/03 10:32:06;;;;;;;2.50;2.10;;;;;;;31.40;45.44;100235.83;117158;1185;23604;-60
2022/08/03 10:34:36;;;;;;;7.20;5.40;;;;;;;31.49;47.08;100238.17;116914;1189;24320;-68
2022/08/03 10:37:11;;;;;;;20.70;12.40;;;;;;;31.46;46.33;100231.90;117002;1189;22927;-61
2022/08/03 10:39:52;;;;;;;4.10;3.30;;;;;;;31.45;44.88;100232.40;117280;1188;22924;-68
2022/08/03 10:42:23;;;;;;;3.50;2.70;;;;;;;31.50;45.96;100232.98;117012;1188;22903;-61
2022/08/03 10:45:04;;;;;;;3.10;2.40;;;;;;;31.82;46.86;100232.10;117199;1189;21908;-60
2022/08/03 10:47:32;;;;;;;2.40;2.20;;;;;;;32.09;45.52;100229.42;117139;1185;22928;-59
2022/08/03 10:49:58;;;;;;;2.50;2.30;;;;;;;32.36;45.67;100230.78;116956;1187;21869;-61
2022/08/03 10:52:25;;;;;;;11.50;2.30;;;;;;;32.56;45.91;100222.45;117119;1186;22968;-61
2022/08/03 10:58:15;;;;;;;2.70;2.00;;;;;;;32.76;45.31;100232.31;117033;1186;21877;-60
2022/08/03 11:00:56;;;;;;;2.70;2.00;;;;;;;32.89;45.47;100228.02;117198;1186;23528;-59
2022/08/03 11:03:23;;;;;;;4.30;2.30;;;;;;;32.98;45.61;100224.90;117138;1188;22982;-67
2022/08/03 11:05:53;;;;;;;2.80;2.00;;;;;;;32.95;44.33;100225.61;116884;1187;22885;-67
2022/08/03 11:08:30;;;;;;;4.30;2.10;;;;;;;33.03;44.69;100222.63;117240;1184;22925;-66
2022/08/03 11:10:59;;;;;;;7.50;2.60;;;;;;;32.98;44.75;100220.67;117122;1188;21927;-68
2022/08/03 11:13:30;;;;;;;3.90;2.50;;;;;;;33.00;44.39;100219.00;117161;1188;21845;-62
2022/08/03 11:15:59;;;;;;;2.90;1.90;;;;;;;33.05;43.24;100217.40;117110;1186;21858;-68
2022/08/03 11:18:30;;;;;;;2.50;2.00;;;;;;;33.01;42.67;100209.61;117160;1185;23518;-69
2022/08/03 11:20:58;;;;;;;2.70;2.00;;;;;;;33.18;43.58;100209.98;116974;1186;21909;-67
2022/08/03 11:23:47;;;;;;;2.40;2.20;;;;;;;33.34;41.95;100217.83;117156;1187;22712;-68
2022/08/03 11:26:33;;;;;;;2.50;2.10;;;;;;;33.46;42.41;100218.70;117229;1188;21854;-60
2022/08/03 11:29:26;;;;;;;4.70;2.40;;;;;;;33.67;43.76;100218.89;117222;1187;21866;-60
2022/08/03 11:31:53;;;;;;;4.90;3.70;;;;;;;34.06;42.61;100207.80;117082;1186;21895;-60
2022/08/03 11:34:20;;;;;;;4.80;2.80;;;;;;;34.54;43.68;100207.88;117010;1185;23664;-67
2022/08/03 11:37:22;;;;;;;4.70;2.20;;;;;;;34.72;40.86;100206.61;116943;1185;22968;-60
2022/08/03 11:39:56;;;;;;;3.80;2.40;;;;;;;34.52;42.28;100205.95;117157;1186;23528;-62
2022/08/03 11:42:23;;;;;;;2.90;2.20;;;;;;;34.34;41.74;100210.75;116941;1183;24188;-68